Bentley, KS (67016)

3:15 AM CST on January 19, 2017 (GMT -0600)
77th and West | | Change Station

Elev 1316 ft 37.83 °N, 97.40 °W | Updated 39 seconds ago

Overcast
Overcast
43.7 °F
Feels Like 44 °F
N
1.7
Wind Variable Wind from South

Today
High -- | Low -- °F
--% Chance of Precip.
Yesterday
High -- | Low -- °F
Precip. -- in
Pressure 29.83 in
Visibility 10.0 miles
Clouds Mostly Cloudy 800 ft
Overcast 1300 ft
Windchill 44 °F
Dew Point 42 °F
Humidity 94%
Rainfall 0.00 in
Snow Depth Not available.
7:42 AM 5:39 PM
Waning Gibbous, 55% visible
METAR KICT 190853Z 16011KT 10SM BKN008 OVC013 06/04 A2982 RMK AO2 SLP099 T00610044 56010 $
Pressure 29.83 in
Visibility 10.0 miles
Clouds Mostly Cloudy 800 ft
Overcast 1300 ft
Windchill 44 °F
Dew Point 42 °F
Humidity 94%
Rainfall 0.00 in
Snow Depth Not available.
7:42 AM 5:39 PM
Waning Gibbous, 55% visible
METAR KICT 190853Z 16011KT 10SM BKN008 OVC013 06/04 A2982 RMK AO2 SLP099 T00610044 56010 $

Get Your Daily Forecast Email!

Thanks for signing up!

Be on the lookout for a verification email in your inbox.

You'll start receiving the daily forecast at 8 AM.

×

10-Day Weather Forecast

Almanac

Astronomy

Jan. 19, 2017 Rise Set
Actual Time
Civil Twilight
Nautical Twilight
Astronomical Twilight
Moon
Length of Visible Light
Length of Day
Tomorrow will be .
, % of the Moon is Illuminated

Today's Extremes

State Highs State Lows

Community

WunderPhotos

Upload Photos

1,962,540 photos uploaded!

WunderBlog® & News

Nearby

Air Quality

  Air Quality AQ Index Pollutant
Not available.

Snow Depth

Station Depth Elevation

Earthquake Activity

City Distance Mag. Time & Date
Minimum magnitude displayed is 2.5.

Coastal Water Temperatures

Place Temperature

Stations

Nearby Weather Stations

Station Location Temp. Windchill Dew Point Humidity Wind Precip. Elev Updated Type
                   

Watches & Warnings

There are currently no watches in effect.